PAMD METAR and TAF weather

Enter ICAO airport designator
Station Type Date Time Source
PAMD METAR 2019/11/14 03:51 UTC NOAA

PAMD 140351Z AUTO 10012KT 3/4SM -RA BR OVC004 09/09 A2914 RMK AO2 SLP856 P0000 T00890089


Station Type Date Time Source
PAMD Decoded METAR 2019/11/14 03:51 UTC NOAA

Middleton Island, Middleton Island Airport, AK, United States (PAMD) 59-26N 146-18W 14M
Nov 13, 2019 - 10:51 PM EST / 2019.11.14 0351 UTC
Wind: from the E (100 degrees) at 14 MPH (12 KT):0
Visibility: 3/4 mile(s):0
Sky conditions: overcast
Weather: light rain; mist
Precipitation last hour: A trace
Temperature: 48.0 F (8.9 C)
Dew Point: 48.0 F (8.9 C)
Relative Humidity: 100%
Pressure (altimeter): 29.14 in. Hg (986 hPa)
ob: PAMD 140351Z AUTO 10012KT 3/4SM -RA BR OVC004 09/09 A2914 RMK AO2 SLP856 P0000 T00890089
cycle: 4

Station Type Date Time Source
PAMD TAF UTC NOAA

Error!

Example: see airport list